Latest Weather Observations for Laverton

IDW60801

Issued at 12:03 pm WST Sunday 23 June 2024 (issued every 10 minutes, with the page automatically refreshed every 10 minutes)

About weather observations | Map of weather stations | Latest weather observations for WA | Other Formats
Station Details ID: 012305 Name: LAVERTON AERO Lat: -28.61 Lon: 122.42 Height: 464.3 m
Data from the previous 72 hours. | See also: Recent months at Laverton
Date/Time
WST
Temp
°C
App
Temp
°C
Dew
Point
°C
Rel
Hum
%
Delta-T
°C
Wind Press
QNH
hPa
Press
MSL
hPa
Rain since
9am
mm
Dir  Spd
km/h
Gust
km/h
Spd
kts
Gust
kts
23/12:00pm 13.6 8.6 1.6 44 5.3 SSW 17 22 9 12 1025.3 1025.1 0.0
23/11:30am 12.7 7.3 1.1 45 5.0 SE 19 26 10 14 1025.7 1025.4 0.0
23/11:00am 12.6 7.1 1.9 48 4.7 SSE 20 30 11 16 1026.0 1025.7 0.0
23/10:30am 12.0 6.1 1.9 50 4.4 SE 22 35 12 19 1026.3 1026.0 0.0
23/10:00am 11.7 5.1 2.2 52 4.2 SE 26 33 14 18 1026.4 1026.1 0.0
23/09:30am 11.2 5.1 2.8 56 3.7 SE 24 30 13 16 1026.5 1026.2 0.0
23/09:00am 11.0 5.9 3.3 59 3.4 SE 19 28 10 15 1026.4 1026.1 0.0
23/08:30am 10.3 5.4 4.2 66 2.8 ESE 19 24 10 13 1025.8 1025.5 0.0
23/08:00am 9.6 5.6 5.0 73 2.1 E 15 19 8 10 1025.4 1025.2 0.0
23/07:30am 8.5 4.8 6.1 85 1.1 ESE 15 19 8 10 1025.0 1024.8 0.0
23/07:00am 7.6 3.8 7.6 100 0.0 ESE 17 22 9 12 1024.7 1024.5 0.0
23/06:30am 6.7 4.2 6.7 100 0.0 SSE 9 11 5 6 1024.9 1024.7 0.0
23/06:00am 7.0 5.2 7.0 100 0.0 SSE 6 7 3 4 1024.9 1024.7 0.0
23/05:30am 8.1 6.1 7.3 95 0.4 SSE 7 11 4 6 1024.4 1024.1 0.0
23/05:00am 8.9 7.0 7.5 91 0.7 SSW 7 9 4 5 1024.3 1024.0 0.0
23/04:30am 9.4 7.3 8.2 92 0.6 SSW 9 13 5 7 1024.0 1023.7 0.0
23/04:00am 10.0 7.9 8.4 90 0.8 S 9 15 5 8 1023.7 1023.4 0.0
23/03:30am 10.6 8.2 8.7 88 1.0 SSW 11 13 6 7 1023.8 1023.5 0.0
23/03:00am 11.0 8.6 8.8 86 1.1 S 11 13 6 7 1023.6 1023.3 0.0
23/02:30am 11.5 8.4 8.7 83 1.4 S 15 17 8 9 1023.4 1023.1 0.0
23/02:00am 12.1 8.1 8.4 78 1.9 S 19 22 10 12 1023.5 1023.2 0.0
23/01:30am 12.5 8.3 8.4 76 2.1 S 20 28 11 15 1023.2 1023.0 0.0
23/01:00am 12.5 8.0 8.6 77 2.0 S 22 30 12 16 1023.2 1023.0 0.0
23/12:30am 12.5 9.4 9.0 79 1.8 SSW 15 20 8 11 1023.2 1023.0 0.0
23/12:00am 13.4 8.9 8.7 73 2.4 SW 22 28 12 15 1022.8 1022.5 0.0
 
Date/Time
WST
Temp
°C
App
Temp
°C
Dew
Point
°C
Rel
Hum
%
Delta-T
°C
Wind Press
QNH
hPa
Press
MSL
hPa
Rain since
9am
mm
Dir  Spd
km/h
Gust
km/h
Spd
kts
Gust
kts
22/11:30pm 13.7 9.7 9.0 73 2.4 WSW 20 26 11 14 1022.6 1022.3 0.0
22/11:00pm 13.5 9.9 8.4 71 2.6 WSW 17 20 9 11 1022.3 1022.0 0.0
22/10:30pm 13.7 10.8 8.3 70 2.8 WSW 13 17 7 9 1022.2 1021.9 0.0
22/10:00pm 13.5 10.5 7.9 69 2.8 WSW 13 15 7 8 1022.2 1021.9 0.0
22/09:30pm 13.6 11.4 7.8 68 2.9 WNW 9 11 5 6 1022.2 1021.9 0.0
22/09:00pm 14.4 12.2 7.7 64 3.4 WNW 9 13 5 7 1021.9 1021.6 0.0
22/08:30pm 15.6 12.2 7.6 59 4.1 NW 15 17 8 9 1021.7 1021.4 0.0
22/08:00pm 15.3 12.7 7.8 61 3.8 NW 11 15 6 8 1021.7 1021.4 0.0
22/07:30pm 15.4 13.7 8.4 63 3.6 WNW 7 9 4 5 1021.2 1020.9 0.0
22/07:00pm 16.0 13.8 7.7 58 4.2 WNW 9 11 5 6 1021.7 1021.4 0.0
22/06:30pm 17.0 13.9 7.4 53 4.9 NW 13 17 7 9 1021.4 1021.1 0.0
22/06:00pm 17.0 14.3 7.4 53 4.9 NW 11 15 6 8 1021.4 1021.1 0.0
22/05:30pm 17.3 14.2 7.4 52 5.1 NW 13 15 7 8 1021.1 1020.8 0.0
22/05:00pm 17.9 14.7 7.0 49 5.6 NW 13 15 7 8 1020.7 1020.4 0.0
22/04:30pm 18.3 14.4 7.1 48 5.8 NW 17 22 9 12 1020.7 1020.4 0.0
22/04:00pm 18.5 14.6 7.0 47 5.9 NW 17 19 9 10 1020.3 1020.0 0.0
22/03:30pm 18.9 14.9 6.7 45 6.3 WNW 17 24 9 13 1020.1 1019.8 0.0
22/03:00pm 19.2 14.2 6.3 43 6.6 NW 22 30 12 16 1020.0 1019.7 0.0
22/02:30pm 19.7 15.1 6.4 42 6.8 WNW 20 28 11 15 1020.4 1020.1 0.0
22/02:00pm 19.7 14.6 6.1 41 6.9 NW 22 30 12 16 1020.4 1020.1 0.0
22/01:30pm 20.0 14.5 6.0 40 7.1 NW 24 32 13 17 1020.6 1020.3 0.0
22/01:00pm 19.9 14.9 6.3 41 6.9 NW 22 28 12 15 1020.8 1020.5 0.0
22/12:30pm 20.3 15.8 5.9 39 7.3 NNW 19 39 10 21 1021.1 1020.8 0.0
22/12:00pm 19.2 13.6 5.6 41 6.8 NW 24 32 13 17 1022.0 1021.7 0.0
22/11:30am 19.2 13.8 6.3 43 6.6 NNW 24 32 13 17 1022.1 1021.8 0.0
22/11:00am 18.2 13.0 5.4 43 6.3 N 22 32 12 17 1022.3 1022.0 0.0
22/10:30am 17.5 11.8 5.1 44 6.1 NNW 24 35 13 19 1022.9 1022.7 0.0
22/10:00am 16.1 9.6 4.8 47 5.4 NNW 28 37 15 20 1023.2 1023.0 0.0
22/09:30am 15.4 9.9 5.9 53 4.7 N 24 33 13 18 1023.8 1023.5 0.0
22/09:00am 13.9 8.7 5.3 56 4.1 N 22 30 12 16 1024.2 1023.9 0.2
22/08:30am 13.3 8.0 5.2 58 3.9 N 22 33 12 18 1024.2 1023.9 0.2
22/08:00am 11.0 6.3 5.3 68 2.7 N 19 24 10 13 1024.2 1023.9 0.2
22/07:30am 9.6 4.6 4.8 72 2.2 N 20 28 11 15 1023.9 1023.6 0.2
22/07:00am 8.8 3.4 4.6 75 1.9 NNE 22 28 12 15 1023.8 1023.5 0.2
22/06:30am 8.8 3.8 4.6 75 1.9 N 20 26 11 14 1023.8 1023.5 0.2
22/06:00am 9.0 3.6 4.6 74 2.0 N 22 28 12 15 1023.6 1023.3 0.2
22/05:30am 9.2 4.3 5.0 75 1.9 N 20 26 11 14 1023.6 1023.3 0.2
22/05:00am 8.9 4.0 4.9 76 1.8 N 20 24 11 13 1023.5 1023.2 0.2
22/04:30am 9.0 4.1 5.2 77 1.8 NNE 20 24 11 13 1023.4 1023.1 0.2
22/04:00am 9.1 4.4 5.1 76 1.8 NNE 19 26 10 14 1023.5 1023.2 0.2
22/03:30am 9.3 4.6 5.3 76 1.9 NNE 19 24 10 13 1023.7 1023.4 0.2
22/03:00am 9.3 5.1 5.5 77 1.8 NNE 17 20 9 11 1023.8 1023.5 0.2
22/02:30am 9.3 5.1 5.7 78 1.7 NNE 17 20 9 11 1024.0 1023.7 0.2
22/02:00am 9.5 5.3 5.9 78 1.7 NNE 17 22 9 12 1024.2 1023.9 0.2
22/01:30am 9.2 5.4 5.9 80 1.6 NNE 15 19 8 10 1024.3 1024.0 0.2
22/01:00am 9.6 5.9 6.1 79 1.6 NNE 15 20 8 11 1024.4 1024.1 0.2
22/12:30am 9.7 6.0 6.2 79 1.7 NE 15 20 8 11 1024.3 1024.0 0.2
22/12:00am 9.6 6.3 6.5 81 1.5 N 13 17 7 9 1024.7 1024.5 0.2
 
Date/Time
WST
Temp
°C
App
Temp
°C
Dew
Point
°C
Rel
Hum
%
Delta-T
°C
Wind Press
QNH
hPa
Press
MSL
hPa
Rain since
9am
mm
Dir  Spd
km/h
Gust
km/h
Spd
kts
Gust
kts
21/11:30pm 9.5 5.9 6.6 82 1.4 NNE 15 17 8 9 1024.7 1024.5 0.2
21/11:00pm 9.7 6.4 6.6 81 1.5 NNE 13 15 7 8 1025.1 1024.9 0.2
21/10:30pm 9.8 6.6 6.7 81 1.5 N 13 15 7 8 1025.1 1024.9 0.2
21/10:00pm 9.9 6.7 6.8 81 1.5 NNE 13 17 7 9 1025.2 1025.0 0.2
21/09:30pm 10.2 7.1 7.1 81 1.5 NNE 13 19 7 10 1025.0 1024.8 0.2
21/09:00pm 9.8 7.2 7.6 86 1.1 ENE 11 15 6 8 1025.0 1024.8 0.2
21/08:30pm 9.0 6.4 7.8 92 0.6 ENE 11 13 6 7 1025.2 1025.0 0.2
21/08:00pm 9.4 7.2 7.8 90 0.8 ENE 9 11 5 6 1025.3 1025.1 0.2
21/07:30pm 10.1 7.5 7.9 86 1.1 ENE 11 13 6 7 1025.4 1025.2 0.2
21/07:00pm 10.7 8.1 7.6 81 1.5 ENE 11 13 6 7 1025.3 1025.1 0.2
21/06:30pm 11.3 9.0 7.6 78 1.8 ENE 9 11 5 6 1025.2 1025.0 0.2
21/06:00pm 12.2 9.9 7.5 73 2.3 ENE 9 11 5 6 1025.0 1024.8 0.2
21/05:30pm 13.3 10.5 7.1 66 3.1 ENE 11 13 6 7 1024.9 1024.7 0.2
21/05:00pm 14.4 11.2 6.7 60 3.8 NE 13 17 7 9 1024.9 1024.7 0.2
21/04:30pm 15.3 12.1 6.8 57 4.3 NE 13 17 7 9 1024.9 1024.7 0.2
21/04:00pm 15.7 12.6 7.2 57 4.3 ENE 13 20 7 11 1024.9 1024.7 0.2
21/03:30pm 15.6 12.5 7.1 57 4.3 NNE 13 20 7 11 1024.9 1024.7 0.2
21/03:00pm 15.9 12.5 7.7 58 4.2 ENE 15 22 8 12 1024.9 1024.7 0.2
21/02:30pm 15.5 12.1 7.8 60 3.9 NE 15 20 8 11 1025.0 1024.8 0.2
21/02:00pm 15.4 11.3 7.7 60 3.9 NE 19 30 10 16 1025.2 1025.0 0.2
21/01:30pm 15.0 10.4 8.3 64 3.5 NE 22 32 12 17 1025.5 1025.3 0.2
21/01:00pm 14.4 10.3 7.9 65 3.3 NE 19 30 10 16 1026.0 1025.7 0.2
21/12:30pm 15.0 11.3 9.6 70 2.9 ENE 19 30 10 16 1026.4 1026.1 0.2
21/12:00pm 14.2 9.8 9.0 71 2.7 NE 22 32 12 17 1027.1 1026.9 0.0
21/11:30am 13.8 9.5 9.5 75 2.3 NE 22 37 12 20 1027.7 1027.5 0.0
21/11:00am 12.5 7.4 9.3 81 1.6 NE 26 33 14 18 1028.6 1028.4 0.0
21/10:30am 12.7 7.9 10.2 85 1.3 NE 26 33 14 18 1028.9 1028.7 0.0
21/10:00am 11.6 7.1 10.2 91 0.7 ENE 24 32 13 17 1029.2 1029.0 0.0
21/09:30am 11.7 8.2 10.9 95 0.4 ENE 20 32 11 17 1029.4 1029.2 0.0
21/09:00am 11.1 7.7 11.1 100 0.0 ENE 20 30 11 16 1029.3 1029.1 0.0
21/08:30am 9.8 6.6 9.8 100 0.0 ENE 17 24 9 13 1029.2 1029.0 0.0
21/08:00am 8.4 5.6 8.4 100 0.0 ENE 13 19 7 10 1029.0 1028.8 0.0
21/07:30am 6.4 3.9 6.4 100 0.0 E 9 11 5 6 1028.8 1028.6 0.0
21/07:00am 5.5 2.4 5.5 100 0.0 E 11 13 6 7 1028.6 1028.4 0.0
21/06:30am 5.7 2.6 5.7 100 0.0 E 11 13 6 7 1028.5 1028.3 0.0
21/06:00am 5.7 3.0 5.7 100 0.0 E 9 11 5 6 1028.0 1027.7 0.0
21/05:30am 5.8 3.1 5.8 100 0.0 E 9 9 5 5 1027.6 1027.4 0.0
21/05:00am 5.3 2.5 5.3 100 0.0 E 9 11 5 6 1027.5 1027.3 0.0
21/04:30am 5.5 3.2 5.5 100 0.0 E 7 7 4 4 1027.3 1027.1 0.0
21/04:00am 5.8 3.7 5.8 100 0.0 E 6 7 3 4 1027.2 1027.0 0.0
21/03:30am 5.4 2.7 5.4 100 0.0 E 9 9 5 5 1027.2 1027.0 0.0
21/03:00am 5.6 2.5 5.6 100 0.0 E 11 11 6 6 1027.3 1027.1 0.0
21/02:30am 6.0 3.0 6.0 100 0.0 E 11 13 6 7 1027.4 1027.2 0.0
21/02:00am 5.8 2.8 5.8 100 0.0 E 11 13 6 7 1027.2 1027.0 0.0
21/01:30am 5.9 3.6 5.9 100 0.0 E 7 9 4 5 1027.5 1027.3 0.0
21/01:00am 6.2 3.6 6.2 100 0.0 E 9 11 5 6 1027.4 1027.2 0.0
21/12:30am 6.3 3.7 6.3 100 0.0 E 9 9 5 5 1027.3 1027.1 0.0
21/12:00am 6.7 4.6 6.7 100 0.0 E 7 9 4 5 1027.5 1027.3 0.0
 
Date/Time
WST
Temp
°C
App
Temp
°C
Dew
Point
°C
Rel
Hum
%
Delta-T
°C
Wind Press
QNH
hPa
Press
MSL
hPa
Rain since
9am
mm
Dir  Spd
km/h
Gust
km/h
Spd
kts
Gust
kts
20/11:30pm 7.2 4.8 7.1 99 0.0 E 9 11 5 6 1027.5 1027.3 0.0
20/11:00pm 8.1 5.4 7.2 94 0.4 E 11 13 6 7 1027.6 1027.4 0.0
20/10:30pm 8.5 5.8 7.3 92 0.6 E 11 13 6 7 1028.0 1027.7 0.0
20/10:00pm 9.3 6.2 7.3 87 1.0 E 13 15 7 8 1028.0 1027.7 0.0
20/09:30pm 9.5 6.4 7.4 87 1.0 E 13 15 7 8 1028.1 1027.8 0.0
20/09:00pm 9.4 6.7 7.5 88 0.9 E 11 15 6 8 1028.2 1027.9 0.0
20/08:30pm 10.1 7.4 7.5 84 1.3 E 11 13 6 7 1028.3 1028.0 0.0
20/08:00pm 10.3 7.6 7.5 83 1.4 E 11 13 6 7 1028.2 1027.9 0.0
20/07:30pm 10.4 8.1 7.5 82 1.4 E 9 11 5 6 1028.1 1027.8 0.0
20/07:00pm 10.8 8.6 7.7 81 1.5 E 9 11 5 6 1027.9 1027.6 0.0
20/06:30pm 11.4 9.1 7.5 77 1.9 E 9 11 5 6 1027.5 1027.3 0.0
20/06:00pm 12.2 9.8 7.1 71 2.5 E 9 11 5 6 1027.3 1027.1 0.0
20/05:30pm 12.9 10.5 6.9 67 3.0 E 9 11 5 6 1027.1 1026.9 0.0
20/05:00pm 13.9 10.6 6.3 60 3.7 E 13 17 7 9 1026.9 1026.7 0.0
20/04:30pm 14.8 11.5 6.4 57 4.2 E 13 17 7 9 1027.0 1026.8 0.0
20/04:00pm 14.9 11.6 6.5 57 4.1 E 13 19 7 10 1027.0 1026.8 0.0
20/03:30pm 15.0 11.7 6.3 56 4.3 SE 13 20 7 11 1027.2 1027.0 0.0
20/03:00pm 14.8 11.1 6.1 56 4.3 SE 15 20 8 11 1027.0 1026.8 0.0
20/02:30pm 14.5 10.8 6.1 57 4.1 SE 15 20 8 11 1027.0 1026.8 0.0
20/02:00pm 14.7 11.0 6.5 58 4.0 SE 15 20 8 11 1027.1 1026.9 0.0
20/01:30pm 14.2 11.0 6.8 61 3.7 SE 13 20 7 11 1027.1 1026.9 0.0
20/01:00pm 14.0 10.3 6.4 60 3.7 ESE 15 24 8 13 1027.4 1027.2 0.0
20/12:30pm 13.9 10.0 7.0 63 3.4 E 17 24 9 13 1027.7 1027.5 0.0

Other formats

Comma delimited format used in spreadsheet applications
http://www.bom.gov.au/fwo/IDW60801/IDW60801.94449.axf

JavaScript Object Notation format (JSON) in row-major order
http://www.bom.gov.au/fwo/IDW60801/IDW60801.94449.json

Data quality

Most of these data are generated automatically and are frequently updated. Quality checks on data are not normally performed. It is possible for incorrect values to appear. Refer to information at About Latest Weather Observations and please check the disclaimer before using these data.